Terminal Aerodrome Forecast
Issued by NWS

Home | Current Version | Previous Version | Graphics & Text | Print | Product List | Glossary On
Versions: 1 2 3 4 5 6 7 8 9 10 11 12 13 14 15 16 17 18 19 20 21 22 23 24 25 26 27 28 29 30 31 32 33 34
000
FTUS43 KABR 282300
TAFATY
TAF
KATY 282331Z 2900/2924 VRB04KT P6SM -DZ OVC006
     FM290400 VRB03KT 2SM BR OVC003
     FM290800 VRB03KT 1SM BR OVC002
     FM291500 VRB04KT P6SM OVC015
     FM291900 VRB05KT P6SM SCT150=

USA.gov is the U.S. government's official web portal to all federal, state and local government web resources and services.